Time,TemperatureF,DewpointF,PressureIn,WindDirection,WindDirectionDegrees,WindSpeedMPH,WindSpeedGustMPH,Humidity,HourlyPrecipIn,Conditions,Clouds,dailyrainin,SolarRadiationWatts/m^2,SoftwareType,DateUTC
2013-03-22 00:22:00,30.0,24.0,-100.00,East,99,12.0,17.0,77,0.00,,,0.00,0.000000,,2013-03-22 05:22:00,
2013-03-22 00:32:00,30.0,24.0,-100.00,East,99,12.0,17.0,77,0.00,,,0.00,0.000000,,2013-03-22 05:32:00,
2013-03-22 00:42:00,30.0,24.0,-100.00,East,99,12.0,17.0,77,0.00,,,0.00,0.000000,,2013-03-22 05:42:00,
2013-03-22 00:52:00,30.0,24.0,-100.00,East,99,12.0,17.0,77,0.00,,,0.00,0.000000,,2013-03-22 05:52:00,
2013-03-22 01:22:00,27.0,27.0,-100.00,ENE,78,9.0,16.0,100,0.00,,,0.00,0.000000,,2013-03-22 06:22:00,
2013-03-22 01:32:00,27.0,27.0,-100.00,ENE,78,9.0,16.0,100,0.00,,,0.00,0.000000,,2013-03-22 06:32:00,
2013-03-22 01:42:00,27.0,27.0,-100.00,ENE,78,9.0,16.0,100,0.00,,,0.00,0.000000,,2013-03-22 06:42:00,
2013-03-22 01:52:00,27.0,27.0,-100.00,ENE,78,9.0,16.0,100,0.00,,,0.00,0.000000,,2013-03-22 06:52:00,
2013-03-22 02:22:00,26.0,26.0,-100.00,East,84,8.0,12.0,100,0.00,,,0.00,0.000000,,2013-03-22 07:22:00,
2013-03-22 02:32:00,26.0,26.0,-100.00,East,84,8.0,12.0,100,0.00,,,0.00,0.000000,,2013-03-22 07:32:00,
2013-03-22 02:42:00,26.0,26.0,-100.00,East,84,8.0,12.0,100,0.00,,,0.00,0.000000,,2013-03-22 07:42:00,
2013-03-22 02:52:00,26.0,26.0,-100.00,East,84,8.0,12.0,100,0.00,,,0.00,0.000000,,2013-03-22 07:52:00,
2013-03-22 03:22:00,26.0,26.0,-100.00,East,87,9.0,11.0,100,0.00,,,0.00,0.000000,,2013-03-22 08:22:00,
2013-03-22 03:32:00,26.0,26.0,-100.00,East,87,9.0,11.0,100,0.00,,,0.00,0.000000,,2013-03-22 08:32:00,
2013-03-22 03:42:00,26.0,26.0,-100.00,East,87,9.0,11.0,100,0.00,,,0.00,0.000000,,2013-03-22 08:42:00,
2013-03-22 03:52:00,26.0,26.0,-100.00,East,87,9.0,11.0,100,0.00,,,0.00,0.000000,,2013-03-22 08:52:00,
2013-03-22 04:22:00,25.0,25.0,-100.00,East,80,7.0,10.0,100,0.00,,,0.00,0.000000,,2013-03-22 09:22:00,
2013-03-22 04:32:00,25.0,25.0,-100.00,East,80,7.0,10.0,100,0.00,,,0.00,0.000000,,2013-03-22 09:32:00,
2013-03-22 04:42:00,25.0,25.0,-100.00,East,80,7.0,10.0,100,0.00,,,0.00,0.000000,,2013-03-22 09:42:00,
2013-03-22 04:53:00,25.0,25.0,-100.00,East,80,7.0,10.0,100,0.00,,,0.00,0.000000,,2013-03-22 09:53:00,
2013-03-22 05:22:00,25.0,25.0,-100.00,East,94,8.0,10.0,100,0.00,,,0.00,0.000000,,2013-03-22 10:22:00,
2013-03-22 05:32:00,25.0,25.0,-100.00,East,94,8.0,10.0,100,0.00,,,0.00,0.000000,,2013-03-22 10:32:00,
2013-03-22 05:42:00,25.0,25.0,-100.00,East,94,8.0,10.0,100,0.00,,,0.00,0.000000,,2013-03-22 10:42:00,
2013-03-22 05:52:00,25.0,25.0,-100.00,East,94,8.0,10.0,100,0.00,,,0.00,0.000000,,2013-03-22 10:52:00,
2013-03-22 06:22:00,25.0,25.0,-100.00,East,81,8.0,10.0,100,0.00,,,0.00,0.000000,,2013-03-22 11:22:00,
2013-03-22 06:33:00,25.0,25.0,-100.00,East,81,8.0,10.0,100,0.00,,,0.00,0.000000,,2013-03-22 11:33:00,
2013-03-22 06:42:00,25.0,25.0,-100.00,East,81,8.0,10.0,100,0.00,,,0.00,0.000000,,2013-03-22 11:42:00,
2013-03-22 06:52:00,25.0,25.0,-100.00,East,81,8.0,10.0,100,0.00,,,0.00,0.000000,,2013-03-22 11:52:00,
2013-03-22 07:22:00,24.0,24.0,-100.00,East,85,6.0,10.0,100,0.00,,,0.00,0.000000,,2013-03-22 12:22:00,
2013-03-22 07:32:00,24.0,24.0,-100.00,East,85,6.0,10.0,100,0.00,,,0.00,0.000000,,2013-03-22 12:32:00,
2013-03-22 07:42:00,24.0,24.0,-100.00,East,85,6.0,10.0,100,0.00,,,0.00,0.000000,,2013-03-22 12:42:00,
2013-03-22 07:52:00,24.0,24.0,-100.00,East,85,6.0,10.0,100,0.00,,,0.00,0.000000,,2013-03-22 12:52:00,
2013-03-22 08:22:00,25.0,25.0,-100.00,East,101,8.0,11.0,100,0.00,,,0.00,3.000000,,2013-03-22 13:22:00,
2013-03-22 08:32:00,25.0,25.0,-100.00,East,101,8.0,11.0,100,0.00,,,0.00,3.000000,,2013-03-22 13:32:00,
2013-03-22 08:42:00,25.0,25.0,-100.00,East,101,8.0,11.0,100,0.00,,,0.00,3.000000,,2013-03-22 13:42:00,
2013-03-22 08:52:00,25.0,25.0,-100.00,East,101,8.0,11.0,100,0.00,,,0.00,3.000000,,2013-03-22 13:52:00,
2013-03-22 09:22:00,25.0,25.0,-100.00,ESE,106,10.0,14.0,100,0.00,,,0.00,49.000000,,2013-03-22 14:22:00,
2013-03-22 09:32:00,25.0,25.0,-100.00,ESE,106,10.0,14.0,100,0.00,,,0.00,49.000000,,2013-03-22 14:32:00,
2013-03-22 09:42:00,25.0,25.0,-100.00,ESE,106,10.0,14.0,100,0.00,,,0.00,49.000000,,2013-03-22 14:42:00,
2013-03-22 09:52:00,25.0,25.0,-100.00,ESE,106,10.0,14.0,100,0.00,,,0.00,49.000000,,2013-03-22 14:52:00,
2013-03-22 10:22:00,26.0,26.0,-100.00,ESE,123,12.0,15.0,100,0.00,,,0.00,110.000000,,2013-03-22 15:22:00,
2013-03-22 10:32:00,26.0,26.0,-100.00,ESE,123,12.0,15.0,100,0.00,,,0.00,110.000000,,2013-03-22 15:32:00,
2013-03-22 10:42:00,26.0,26.0,-100.00,ESE,123,12.0,15.0,100,0.00,,,0.00,110.000000,,2013-03-22 15:42:00,
2013-03-22 10:52:00,26.0,26.0,-100.00,ESE,123,12.0,15.0,100,0.00,,,0.00,110.000000,,2013-03-22 15:52:00,
2013-03-22 11:23:00,27.0,27.0,-100.00,SE,137,10.0,15.0,100,0.00,,,0.00,169.000000,,2013-03-22 16:23:00,
2013-03-22 11:32:00,27.0,27.0,-100.00,SE,137,10.0,15.0,100,0.00,,,0.00,169.000000,,2013-03-22 16:32:00,
2013-03-22 11:42:00,27.0,27.0,-100.00,SE,137,10.0,15.0,100,0.00,,,0.00,169.000000,,2013-03-22 16:42:00,
2013-03-22 11:52:00,27.0,27.0,-100.00,SE,137,10.0,15.0,100,0.00,,,0.00,169.000000,,2013-03-22 16:52:00,
2013-03-22 12:23:00,28.0,28.0,-100.00,SE,145,9.0,13.0,100,0.00,,,0.00,215.000000,,2013-03-22 17:23:00,
2013-03-22 12:32:00,28.0,28.0,-100.00,SE,145,9.0,13.0,100,0.00,,,0.00,215.000000,,2013-03-22 17:32:00,
2013-03-22 12:42:00,28.0,28.0,-100.00,SE,145,9.0,13.0,100,0.00,,,0.00,215.000000,,2013-03-22 17:42:00,
2013-03-22 12:52:00,28.0,28.0,-100.00,SE,145,9.0,13.0,100,0.00,,,0.00,215.000000,,2013-03-22 17:52:00,
2013-03-22 13:22:00,29.0,29.0,-100.00,SE,128,7.0,11.0,100,0.00,,,0.00,384.000000,,2013-03-22 18:22:00,
2013-03-22 13:33:00,29.0,29.0,-100.00,SE,128,7.0,11.0,100,0.00,,,0.00,384.000000,,2013-03-22 18:33:00,
2013-03-22 13:42:00,29.0,29.0,-100.00,SE,128,7.0,11.0,100,0.00,,,0.00,384.000000,,2013-03-22 18:42:00,
2013-03-22 13:52:00,29.0,29.0,-100.00,SE,128,7.0,11.0,100,0.00,,,0.00,384.000000,,2013-03-22 18:52:00,
2013-03-22 14:22:00,31.0,31.0,-100.00,SE,134,7.0,11.0,100,0.02,,,0.02,454.000000,,2013-03-22 19:22:00,
2013-03-22 14:32:00,31.0,31.0,-100.00,SE,134,7.0,11.0,100,0.02,,,0.02,454.000000,,2013-03-22 19:32:00,
2013-03-22 14:42:00,31.0,31.0,-100.00,SE,134,7.0,11.0,100,0.02,,,0.02,454.000000,,2013-03-22 19:42:00,
2013-03-22 14:52:00,31.0,31.0,-100.00,SE,134,7.0,11.0,100,0.02,,,0.02,454.000000,,2013-03-22 19:52:00,
2013-03-22 15:22:00,32.0,32.0,-100.00,SE,127,5.0,9.0,100,0.00,,,0.02,466.000000,,2013-03-22 20:22:00,
2013-03-22 15:32:00,32.0,32.0,-100.00,SE,127,5.0,9.0,100,0.00,,,0.02,466.000000,,2013-03-22 20:32:00,
2013-03-22 15:42:00,32.0,32.0,-100.00,SE,127,5.0,9.0,100,0.00,,,0.02,466.000000,,2013-03-22 20:42:00,
2013-03-22 15:52:00,32.0,32.0,-100.00,SE,127,5.0,9.0,100,0.00,,,0.02,466.000000,,2013-03-22 20:52:00,
2013-03-22 16:22:00,33.0,33.0,-100.00,SE,130,4.0,8.0,100,0.00,,,0.02,358.000000,,2013-03-22 21:22:00,
2013-03-22 16:33:00,33.0,33.0,-100.00,SE,130,4.0,8.0,100,0.00,,,0.02,358.000000,,2013-03-22 21:33:00,
2013-03-22 16:43:00,33.0,33.0,-100.00,SE,130,4.0,8.0,100,0.00,,,0.02,358.000000,,2013-03-22 21:43:00,
2013-03-22 16:53:00,33.0,33.0,-100.00,SE,130,4.0,8.0,100,0.00,,,0.02,358.000000,,2013-03-22 21:53:00,
2013-03-22 17:23:00,34.0,34.0,-100.00,East,80,7.0,11.0,100,0.00,,,0.02,239.000000,,2013-03-22 22:23:00,
2013-03-22 17:32:00,34.0,34.0,-100.00,East,80,7.0,11.0,100,0.00,,,0.02,239.000000,,2013-03-22 22:32:00,
2013-03-22 17:42:00,34.0,34.0,-100.00,East,80,7.0,11.0,100,0.00,,,0.02,239.000000,,2013-03-22 22:42:00,
2013-03-22 17:52:00,34.0,34.0,-100.00,East,80,7.0,11.0,100,0.00,,,0.02,239.000000,,2013-03-22 22:52:00,
2013-03-22 18:22:00,34.0,34.0,-100.00,East,89,7.0,10.0,100,0.00,,,0.02,185.000000,,2013-03-22 23:22:00,
2013-03-22 18:32:00,34.0,34.0,-100.00,East,89,7.0,10.0,100,0.00,,,0.02,185.000000,,2013-03-22 23:32:00,
2013-03-22 18:42:00,34.0,34.0,-100.00,East,89,7.0,10.0,100,0.00,,,0.02,185.000000,,2013-03-22 23:42:00,
2013-03-22 18:52:00,34.0,34.0,-100.00,East,89,7.0,10.0,100,0.00,,,0.02,185.000000,,2013-03-22 23:52:00,
2013-03-22 19:23:00,33.0,33.0,-100.00,ENE,78,6.0,10.0,100,0.00,,,0.02,65.000000,,2013-03-23 00:23:00,
2013-03-22 19:33:00,33.0,33.0,-100.00,ENE,78,6.0,10.0,100,0.00,,,0.02,65.000000,,2013-03-23 00:33:00,
2013-03-22 19:42:00,33.0,33.0,-100.00,ENE,78,6.0,10.0,100,0.00,,,0.02,65.000000,,2013-03-23 00:42:00,
2013-03-22 19:52:00,33.0,33.0,-100.00,ENE,78,6.0,10.0,100,0.00,,,0.02,65.000000,,2013-03-23 00:52:00,
2013-03-22 20:22:00,33.0,33.0,-100.00,ENE,66,6.0,10.0,100,0.00,,,0.02,9.000000,,2013-03-23 01:22:00,
2013-03-22 20:32:00,33.0,33.0,-100.00,ENE,66,6.0,10.0,100,0.00,,,0.02,9.000000,,2013-03-23 01:32:00,
2013-03-22 20:42:00,33.0,33.0,-100.00,ENE,66,6.0,10.0,100,0.00,,,0.02,9.000000,,2013-03-23 01:42:00,
2013-03-22 20:52:00,33.0,33.0,-100.00,ENE,66,6.0,10.0,100,0.00,,,0.02,9.000000,,2013-03-23 01:52:00,
2013-03-22 21:22:00,32.0,32.0,-100.00,ENE,74,9.0,12.0,100,0.00,,,0.02,0.000000,,2013-03-23 02:22:00,
2013-03-22 21:32:00,32.0,32.0,-100.00,ENE,74,9.0,12.0,100,0.00,,,0.02,0.000000,,2013-03-23 02:32:00,
2013-03-22 21:42:00,32.0,32.0,-100.00,ENE,74,9.0,12.0,100,0.00,,,0.02,0.000000,,2013-03-23 02:42:00,
2013-03-22 21:52:00,32.0,32.0,-100.00,ENE,74,9.0,12.0,100,0.00,,,0.02,0.000000,,2013-03-23 02:52:00,
2013-03-22 22:22:00,31.0,31.0,-100.00,ENE,77,10.0,14.0,100,0.00,,,0.02,0.000000,,2013-03-23 03:22:00,
2013-03-22 22:33:00,31.0,31.0,-100.00,ENE,77,10.0,14.0,100,0.00,,,0.02,0.000000,,2013-03-23 03:33:00,
2013-03-22 22:43:00,31.0,31.0,-100.00,ENE,77,10.0,14.0,100,0.00,,,0.02,0.000000,,2013-03-23 03:43:00,
2013-03-22 22:53:00,31.0,31.0,-100.00,ENE,77,10.0,14.0,100,0.00,,,0.02,0.000000,,2013-03-23 03:53:00,
2013-03-22 23:23:00,31.0,31.0,-100.00,ESE,112,8.0,13.0,100,0.00,,,0.02,0.000000,,2013-03-23 04:23:00,
2013-03-22 23:32:00,31.0,31.0,-100.00,ESE,112,8.0,13.0,100,0.00,,,0.02,0.000000,,2013-03-23 04:32:00,
2013-03-22 23:43:00,31.0,31.0,-100.00,ESE,112,8.0,13.0,100,0.00,,,0.02,0.000000,,2013-03-23 04:43:00,
2013-03-22 23:53:00,31.0,31.0,-100.00,ESE,112,8.0,13.0,100,0.00,,,0.02,0.000000,,2013-03-23 04:53:00,